createdAt,value
2023-03-06T00:01:06.014Z,52.10
2023-03-06T00:04:11.953Z,48.50
2023-03-06T00:06:50.314Z,52.00
2023-03-06T00:09:18.527Z,50.30
2023-03-06T00:11:49.918Z,49.00
2023-03-06T00:14:18.045Z,49.40
2023-03-06T00:17:05.193Z,49.00
2023-03-06T00:19:33.244Z,47.00
2023-03-06T00:22:09.181Z,54.50
2023-03-06T00:24:39.590Z,55.80
2023-03-06T00:27:10.794Z,51.30
2023-03-06T00:30:08.226Z,52.20
2023-03-06T00:32:38.945Z,47.80
2023-03-06T00:35:30.193Z,55.80
2023-03-06T00:38:27.578Z,51.50
2023-03-06T00:41:47.206Z,52.10
2023-03-06T00:45:28.741Z,54.90
2023-03-06T00:48:46.428Z,50.10
2023-03-06T00:51:47.228Z,54.50
2023-03-06T00:54:45.850Z,51.60
2023-03-06T00:57:17.111Z,56.30
2023-03-06T00:59:48.351Z,51.70
2023-03-06T01:02:21.987Z,48.10
2023-03-06T01:04:50.168Z,52.70
2023-03-06T01:07:28.508Z,51.80
2023-03-06T01:10:10.944Z,56.80
2023-03-06T01:12:39.003Z,58.90
2023-03-06T01:15:07.801Z,55.80
2023-03-06T01:17:38.155Z,52.10
2023-03-06T01:20:07.171Z,48.40
2023-03-06T01:22:38.443Z,52.80
2023-03-06T01:25:07.216Z,57.50
2023-03-06T01:27:38.476Z,49.20
2023-03-06T01:30:07.602Z,57.00
2023-03-06T01:32:38.709Z,61.50
2023-03-06T01:35:16.851Z,51.50
2023-03-06T01:37:52.433Z,42.20
2023-03-06T01:40:35.363Z,59.90
2023-03-06T01:43:24.302Z,55.50
2023-03-06T01:45:53.030Z,55.50
2023-03-06T01:48:23.990Z,55.10
2023-03-06T01:51:12.619Z,51.00
2023-03-06T01:53:43.240Z,51.20
2023-03-06T01:56:22.132Z,57.30
2023-03-06T01:59:30.723Z,57.20
2023-03-06T02:02:01.697Z,54.00
2023-03-06T02:04:44.095Z,51.10
2023-03-06T02:07:32.746Z,52.60
2023-03-06T02:10:03.464Z,53.30
2023-03-06T02:12:45.144Z,50.70
2023-03-06T02:15:17.886Z,49.50
2023-03-06T02:17:47.627Z,49.00
2023-03-06T02:20:53.796Z,63.80
2023-03-06T02:23:33.959Z,46.50
2023-03-06T02:26:05.414Z,54.30
2023-03-06T02:28:40.854Z,48.90
2023-03-06T02:31:19.904Z,52.00
2023-03-06T02:34:02.783Z,56.50
2023-03-06T02:36:33.732Z,55.70
2023-03-06T02:39:02.034Z,54.00
2023-03-06T02:41:32.446Z,54.30
2023-03-06T02:44:00.697Z,50.80
2023-03-06T02:46:32.382Z,57.00
2023-03-06T02:49:00.495Z,55.00
2023-03-06T02:51:30.962Z,49.70
2023-03-06T02:53:59.032Z,44.00
2023-03-06T02:56:27.205Z,51.90
2023-03-06T02:58:55.006Z,53.20
2023-03-06T03:01:36.442Z,49.90
2023-03-06T03:04:10.201Z,54.90
2023-03-06T03:06:41.054Z,48.90
2023-03-06T03:09:09.554Z,52.60
2023-03-06T03:11:37.737Z,52.30
2023-03-06T03:14:11.275Z,49.10
2023-03-06T03:16:49.617Z,52.20
2023-03-06T03:19:17.836Z,58.10
2023-03-06T03:21:46.324Z,50.80
2023-03-06T03:24:35.184Z,54.00
2023-03-06T03:27:03.994Z,52.50
2023-03-06T03:29:37.256Z,51.30
2023-03-06T03:32:06.778Z,52.20
2023-03-06T03:34:52.142Z,48.10
2023-03-06T03:37:23.661Z,49.60
2023-03-06T03:39:54.863Z,48.30
2023-03-06T03:42:23.879Z,43.70
2023-03-06T03:45:00.712Z,54.80
2023-03-06T03:47:52.446Z,44.80
2023-03-06T03:50:21.357Z,48.80
2023-03-06T03:52:52.650Z,44.20
2023-03-06T03:55:20.874Z,45.40
2023-03-06T03:57:51.873Z,42.60
2023-03-06T04:00:23.312Z,51.90
2023-03-06T04:02:58.970Z,50.40
2023-03-06T04:05:58.049Z,43.10
2023-03-06T04:08:28.985Z,48.30
2023-03-06T04:10:57.271Z,57.50
2023-03-06T04:13:35.632Z,45.60
2023-03-06T04:16:04.767Z,45.40
2023-03-06T04:18:33.622Z,43.20
2023-03-06T04:21:06.330Z,47.80
2023-03-06T04:23:37.776Z,48.90
2023-03-06T04:26:06.884Z,50.20
2023-03-06T04:28:35.974Z,43.10
2023-03-06T04:31:34.268Z,45.70
2023-03-06T04:34:11.656Z,45.60
2023-03-06T04:36:45.224Z,49.00
2023-03-06T04:39:16.892Z,40.20
2023-03-06T04:41:47.975Z,45.30
2023-03-06T04:44:24.890Z,45.80
2023-03-06T04:46:52.833Z,48.30
2023-03-06T04:49:41.091Z,46.30
2023-03-06T04:52:11.560Z,52.10
2023-03-06T04:55:08.438Z,49.70
2023-03-06T04:57:37.367Z,47.00
2023-03-06T05:02:48.205Z,42.20
2023-03-06T05:05:17.206Z,49.70
2023-03-06T05:07:47.743Z,51.30
2023-03-06T05:10:22.877Z,47.90
2023-03-06T05:13:20.190Z,48.20
2023-03-06T05:16:11.262Z,51.20
2023-03-06T05:18:39.263Z,48.80
2023-03-06T05:21:23.555Z,51.70
2023-03-06T05:23:56.916Z,56.00
2023-03-06T05:26:27.664Z,50.40
2023-03-06T05:28:55.986Z,46.40
2023-03-06T05:31:24.050Z,51.60
2023-03-06T05:33:57.023Z,58.00
2023-03-06T05:36:28.592Z,50.50
2023-03-06T05:38:59.104Z,50.20
2023-03-06T05:41:27.183Z,47.60
2023-03-06T05:44:25.552Z,46.10
2023-03-06T05:46:53.466Z,52.20
2023-03-06T05:49:21.578Z,48.50
2023-03-06T05:52:20.779Z,52.20
2023-03-06T05:54:59.718Z,43.30
2023-03-06T05:57:28.019Z,45.70
2023-03-06T05:59:58.175Z,51.10
2023-03-06T06:02:26.621Z,48.10
2023-03-06T06:05:07.060Z,54.80
2023-03-06T06:08:08.044Z,51.50
2023-03-06T06:11:18.252Z,55.30
2023-03-06T06:14:18.721Z,54.10
2023-03-06T06:17:10.394Z,48.90
2023-03-06T06:19:38.732Z,49.40
2023-03-06T06:22:29.543Z,52.90
2023-03-06T06:25:00.093Z,49.80
2023-03-06T06:28:30.761Z,47.00
2023-03-06T06:31:24.543Z,58.60
2023-03-06T06:34:35.627Z,50.50
2023-03-06T06:37:24.424Z,52.40
2023-03-06T06:39:55.149Z,46.30
2023-03-06T06:42:53.498Z,46.20
2023-03-06T06:45:31.620Z,42.50
2023-03-06T06:49:00.262Z,49.20
2023-03-06T06:51:48.745Z,46.70
2023-03-06T06:54:31.237Z,59.30
2023-03-06T06:57:18.240Z,47.00
2023-03-06T07:00:11.339Z,45.90
2023-03-06T07:02:54.557Z,46.60
2023-03-06T07:05:22.812Z,45.10
2023-03-06T07:08:13.630Z,49.10
2023-03-06T07:10:41.628Z,48.20
2023-03-06T07:13:09.805Z,47.00
2023-03-06T07:16:29.565Z,44.90
2023-03-06T07:19:38.715Z,48.00
2023-03-06T07:22:21.907Z,51.90
2023-03-06T07:24:52.150Z,48.70
2023-03-06T07:27:48.755Z,38.30
2023-03-06T07:30:25.795Z,47.40
2023-03-06T07:32:58.360Z,40.20
2023-03-06T07:35:26.637Z,46.30
2023-03-06T07:37:57.995Z,40.30
2023-03-06T07:40:46.361Z,35.20
2023-03-06T07:43:19.340Z,32.10
2023-03-06T07:46:01.754Z,44.50
2023-03-06T07:48:30.514Z,46.80
2023-03-06T07:51:05.256Z,41.10
2023-03-06T07:54:13.859Z,40.60
2023-03-06T07:56:45.051Z,44.80
2023-03-06T07:59:18.320Z,43.50
2023-03-06T08:01:49.037Z,37.60
2023-03-06T08:04:19.712Z,35.00
2023-03-06T08:06:48.051Z,40.80
2023-03-06T08:09:16.213Z,31.70
2023-03-06T08:11:45.278Z,35.30
2023-03-06T08:14:16.432Z,32.20
2023-03-06T08:16:44.397Z,38.80
2023-03-06T08:19:15.796Z,34.70
2023-03-06T08:21:43.907Z,36.00
2023-03-06T08:24:13.222Z,35.00
2023-03-06T08:26:41.601Z,37.70
2023-03-06T08:29:10.090Z,34.60
2023-03-06T08:31:42.863Z,34.90
2023-03-06T08:34:25.773Z,30.60
2023-03-06T08:36:53.574Z,30.90
2023-03-06T08:39:24.175Z,27.40
2023-03-06T08:41:52.190Z,31.40
2023-03-06T08:44:20.350Z,27.30
2023-03-06T08:46:50.846Z,32.40
2023-03-06T08:49:18.730Z,31.60
2023-03-06T08:51:46.778Z,28.50
2023-03-06T08:54:15.057Z,29.50
2023-03-06T08:56:43.156Z,37.30
2023-03-06T08:59:13.963Z,28.80
2023-03-06T09:01:45.109Z,23.70
2023-03-06T09:04:13.308Z,21.60
2023-03-06T09:06:43.162Z,17.60
2023-03-06T09:09:11.578Z,20.50
2023-03-06T09:11:39.876Z,23.20
2023-03-06T09:14:10.320Z,18.90
2023-03-06T09:16:38.583Z,18.20
2023-03-06T09:19:06.549Z,16.70
2023-03-06T09:21:34.686Z,24.20
2023-03-06T09:24:03.046Z,20.30
2023-03-06T09:26:45.160Z,16.50
2023-03-06T09:29:16.253Z,24.00
2023-03-06T09:31:45.326Z,17.90
2023-03-06T09:34:13.467Z,19.60
2023-03-06T09:36:57.264Z,17.20
2023-03-06T09:39:31.438Z,18.00
2023-03-06T09:41:59.778Z,23.30
2023-03-06T09:44:30.246Z,20.40
2023-03-06T09:47:17.986Z,17.90
2023-03-06T09:50:15.381Z,21.00
2023-03-06T09:52:53.066Z,22.30
2023-03-06T09:55:27.121Z,24.80
2023-03-06T09:58:21.384Z,29.30
2023-03-06T10:01:16.228Z,28.70
2023-03-06T10:04:19.724Z,23.30
2023-03-06T10:06:50.934Z,25.40
2023-03-06T10:09:22.372Z,20.30
2023-03-06T10:11:58.802Z,19.80
2023-03-06T10:14:49.380Z,16.90
2023-03-06T10:17:41.466Z,12.90
2023-03-06T10:20:27.903Z,11.70
2023-03-06T10:23:50.807Z,13.80
2023-03-06T10:26:45.364Z,10.80
2023-03-06T10:30:03.612Z,8.70
2023-03-06T10:32:49.360Z,10.80
2023-03-06T10:35:21.317Z,17.40
2023-03-06T10:38:00.436Z,10.60
2023-03-06T10:40:49.976Z,15.10
2023-03-06T10:44:25.455Z,16.20
2023-03-06T10:46:54.385Z,11.40
2023-03-06T10:49:27.113Z,12.90
2023-03-06T10:52:21.295Z,18.10
2023-03-06T10:54:51.750Z,17.30
2023-03-06T10:57:25.463Z,16.10
2023-03-06T10:59:58.830Z,17.40
2023-03-06T11:02:33.913Z,13.30
2023-03-06T11:05:05.720Z,19.10
2023-03-06T11:07:36.135Z,20.50
2023-03-06T11:10:19.872Z,18.20
2023-03-06T11:13:07.533Z,14.80
2023-03-06T11:16:19.567Z,18.00
2023-03-06T11:19:36.914Z,14.20
2023-03-06T11:22:17.797Z,15.40
2023-03-06T11:25:14.414Z,18.10
2023-03-06T11:28:26.951Z,18.80
2023-03-06T11:31:35.580Z,20.30
2023-03-06T11:34:50.175Z,20.60
2023-03-06T11:38:24.012Z,17.70
2023-03-06T11:41:18.955Z,21.90
2023-03-06T11:44:23.266Z,21.40
2023-03-06T11:47:21.797Z,18.70
2023-03-06T11:50:06.119Z,16.70
2023-03-06T11:52:56.117Z,15.00
2023-03-06T11:56:35.737Z,14.60
2023-03-06T12:00:15.285Z,11.00
2023-03-06T12:03:02.633Z,19.90
2023-03-06T12:06:43.498Z,16.40
2023-03-06T12:13:06.065Z,31.40
2023-03-06T12:16:20.887Z,16.40
2023-03-06T12:19:42.587Z,16.00
2023-03-06T12:22:53.386Z,15.70
2023-03-06T12:25:52.822Z,16.20
2023-03-06T12:28:52.169Z,17.20
2023-03-06T12:32:03.425Z,16.60
2023-03-06T12:35:13.337Z,13.20
2023-03-06T12:38:19.638Z,15.80
2023-03-06T12:40:53.141Z,16.30
2023-03-06T12:43:47.199Z,14.70
2023-03-06T12:46:30.567Z,16.60
2023-03-06T12:49:32.097Z,13.90
2023-03-06T12:52:04.868Z,14.70
2023-03-06T12:54:37.095Z,15.30
2023-03-06T12:57:12.577Z,14.20
2023-03-06T12:59:49.110Z,12.70
2023-03-06T13:02:51.655Z,15.00
2023-03-06T13:06:21.973Z,17.60
2023-03-06T13:09:23.061Z,13.30
2023-03-06T13:12:25.596Z,16.00
2023-03-06T13:14:57.211Z,22.30
2023-03-06T13:17:41.355Z,16.70
2023-03-06T13:20:15.024Z,18.50
2023-03-06T13:23:28.578Z,17.40
2023-03-06T13:26:01.098Z,18.50
2023-03-06T13:29:01.854Z,19.10
2023-03-06T13:31:58.983Z,24.90
2023-03-06T13:34:40.158Z,19.40
2023-03-06T13:37:48.294Z,19.90
2023-03-06T13:40:34.464Z,24.60
2023-03-06T13:43:40.646Z,23.00
2023-03-06T13:46:36.691Z,21.10
2023-03-06T13:49:34.676Z,21.80
2023-03-06T13:52:45.221Z,22.80
2023-03-06T13:55:27.320Z,22.80
2023-03-06T13:58:46.676Z,23.50
2023-03-06T14:01:29.120Z,25.30
2023-03-06T14:04:49.568Z,27.90
2023-03-06T14:07:52.446Z,20.70
2023-03-06T14:10:41.714Z,22.70
2023-03-06T14:13:38.439Z,25.00
2023-03-06T14:16:24.520Z,26.20
2023-03-06T14:18:55.519Z,27.90
2023-03-06T14:22:26.157Z,23.70
2023-03-06T14:25:21.264Z,26.00
2023-03-06T14:27:53.508Z,24.00
2023-03-06T14:30:26.754Z,25.10
2023-03-06T14:33:18.412Z,25.80
2023-03-06T14:35:51.665Z,23.70
2023-03-06T14:38:35.383Z,23.10
2023-03-06T14:41:14.269Z,22.60
2023-03-06T14:43:42.499Z,31.30
2023-03-06T14:46:22.739Z,27.00
2023-03-06T14:48:54.153Z,44.40
2023-03-06T14:51:30.129Z,34.00
2023-03-06T14:54:20.011Z,29.80
2023-03-06T14:57:05.481Z,28.60
2023-03-06T14:59:44.511Z,28.50
2023-03-06T15:02:19.984Z,31.10
2023-03-06T15:04:58.244Z,31.50
2023-03-06T15:07:35.177Z,30.90
2023-03-06T15:10:41.788Z,33.50
2023-03-06T15:13:26.280Z,27.70
2023-03-06T15:16:15.278Z,28.80
2023-03-06T15:19:06.670Z,26.40
2023-03-06T15:21:48.418Z,30.70
2023-03-06T15:25:04.141Z,28.60
2023-03-06T15:27:34.580Z,28.40
2023-03-06T15:30:13.928Z,32.00
2023-03-06T15:33:36.640Z,31.80
2023-03-06T15:36:15.638Z,34.00
2023-03-06T15:38:49.642Z,35.30
2023-03-06T15:41:50.970Z,34.30
2023-03-06T15:45:04.518Z,31.00
2023-03-06T15:48:06.124Z,31.00
2023-03-06T15:51:55.137Z,38.70
2023-03-06T15:54:33.557Z,33.60
2023-03-06T15:57:26.125Z,32.20
2023-03-06T16:00:50.955Z,43.50
2023-03-06T16:03:18.759Z,36.50
2023-03-06T16:06:18.273Z,42.60
2023-03-06T16:09:41.839Z,35.60
2023-03-06T16:13:36.463Z,46.10
2023-03-06T16:17:05.463Z,43.10
2023-03-06T16:20:11.629Z,40.80
2023-03-06T16:23:12.800Z,41.80
2023-03-06T16:25:48.645Z,49.10
2023-03-06T16:29:08.185Z,48.10
2023-03-06T16:31:43.941Z,53.10
2023-03-06T16:34:32.396Z,47.00
2023-03-06T16:37:03.166Z,48.60
2023-03-06T16:41:12.201Z,50.90
2023-03-06T16:43:19.864Z,50.00
2023-03-06T16:46:02.402Z,45.70
2023-03-06T16:48:34.006Z,49.60
2023-03-06T16:51:42.682Z,55.40
2023-03-06T16:54:50.416Z,53.60
2023-03-06T16:57:59.471Z,51.60
2023-03-06T17:00:33.875Z,53.60
2023-03-06T17:03:12.444Z,54.50
2023-03-06T17:06:20.828Z,52.60
2023-03-06T17:08:52.111Z,53.10
2023-03-06T17:11:42.927Z,55.00
2023-03-06T17:14:23.419Z,48.40
2023-03-06T17:16:54.865Z,59.20
2023-03-06T17:19:22.873Z,57.90
2023-03-06T17:21:56.850Z,55.90
2023-03-06T17:24:38.028Z,56.50
2023-03-06T17:27:09.509Z,57.00
2023-03-06T17:29:37.751Z,53.00
2023-03-06T17:32:08.398Z,57.60
2023-03-06T17:34:36.363Z,57.10
2023-03-06T17:37:07.214Z,59.50
2023-03-06T17:39:37.808Z,55.30
2023-03-06T17:42:26.255Z,61.10
2023-03-06T17:44:59.856Z,55.90
2023-03-06T17:47:27.887Z,52.40
2023-03-06T17:49:55.952Z,54.30
2023-03-06T17:52:24.075Z,53.80
2023-03-06T17:54:52.247Z,51.30
2023-03-06T17:57:20.374Z,49.80
2023-03-06T17:59:48.859Z,55.60
2023-03-06T18:02:17.778Z,47.80
2023-03-06T18:04:49.105Z,50.00
2023-03-06T18:07:29.567Z,52.90
2023-03-06T18:10:22.277Z,49.80
2023-03-06T18:13:03.587Z,52.80
2023-03-06T18:15:31.865Z,54.60
2023-03-06T18:18:03.197Z,53.90
2023-03-06T18:20:46.997Z,58.60
2023-03-06T18:23:26.681Z,59.20
2023-03-06T18:26:34.423Z,52.30
2023-03-06T18:29:17.272Z,56.30
2023-03-06T18:31:49.415Z,55.10
2023-03-06T18:36:55.289Z,56.20
2023-03-06T18:39:54.906Z,53.70
2023-03-06T18:42:38.238Z,52.60
2023-03-06T18:45:19.164Z,52.10
2023-03-06T18:47:48.987Z,57.30
2023-03-06T18:50:17.764Z,59.40
2023-03-06T18:52:46.692Z,51.10
2023-03-06T18:55:15.216Z,55.20
2023-03-06T18:57:45.908Z,53.30
2023-03-06T19:00:14.598Z,54.20
2023-03-06T19:02:45.168Z,51.30
2023-03-06T19:05:22.422Z,52.50
2023-03-06T19:07:57.636Z,52.10
2023-03-06T19:10:36.590Z,54.30
2023-03-06T19:13:15.205Z,53.40
2023-03-06T19:15:56.584Z,53.20
2023-03-06T19:18:34.312Z,59.80
2023-03-06T19:21:34.208Z,56.50
2023-03-06T19:24:02.753Z,55.90
2023-03-06T19:26:44.083Z,59.70
2023-03-06T19:29:16.968Z,51.90
2023-03-06T19:31:45.390Z,53.60
2023-03-06T19:34:15.946Z,50.70
2023-03-06T19:36:54.105Z,51.60
2023-03-06T19:39:24.834Z,52.70
2023-03-06T19:41:52.876Z,56.30
2023-03-06T19:44:21.054Z,56.00
2023-03-06T19:46:49.141Z,49.80
2023-03-06T19:49:18.100Z,54.20
2023-03-06T19:51:46.038Z,49.00
2023-03-06T19:54:14.596Z,47.50
2023-03-06T19:56:45.209Z,47.30
2023-03-06T19:59:13.274Z,46.60
2023-03-06T20:01:41.668Z,45.70
2023-03-06T20:04:09.972Z,42.40
2023-03-06T20:06:40.766Z,42.50
2023-03-06T20:09:20.336Z,41.00
2023-03-06T20:11:51.507Z,43.80
2023-03-06T20:14:37.323Z,45.30
2023-03-06T20:17:45.012Z,38.00
2023-03-06T20:20:15.240Z,47.40
2023-03-06T20:22:43.523Z,41.40
2023-03-06T20:25:26.458Z,45.00
2023-03-06T20:28:32.573Z,42.70
2023-03-06T20:31:17.525Z,44.10
2023-03-06T20:34:08.692Z,44.00
2023-03-06T20:36:59.158Z,41.40
2023-03-06T20:39:30.330Z,41.80
2023-03-06T20:44:39.418Z,39.70
2023-03-06T20:47:07.964Z,40.30
2023-03-06T20:49:41.605Z,42.00
2023-03-06T20:52:24.367Z,38.40
2023-03-06T20:54:54.833Z,38.50
2023-03-06T20:57:25.515Z,36.40
2023-03-06T20:59:53.468Z,31.80
2023-03-06T21:02:21.454Z,33.80
2023-03-06T21:04:49.912Z,30.30
2023-03-06T21:07:17.903Z,33.80
2023-03-06T21:09:55.988Z,32.70
2023-03-06T21:12:30.125Z,35.50
2023-03-06T21:14:59.017Z,31.50
2023-03-06T21:17:39.069Z,39.30
2023-03-06T21:20:07.646Z,35.40
2023-03-06T21:22:56.287Z,33.10
2023-03-06T21:25:37.276Z,33.60
2023-03-06T21:28:46.907Z,34.70
2023-03-06T21:31:27.098Z,32.40
2023-03-06T21:35:04.582Z,34.60
2023-03-06T21:37:51.734Z,32.00
2023-03-06T21:40:25.920Z,36.80
2023-03-06T21:42:59.909Z,38.90
2023-03-06T21:45:30.255Z,45.10
2023-03-06T21:48:00.154Z,42.50
2023-03-06T21:50:28.563Z,35.90
2023-03-06T21:52:57.435Z,43.10
2023-03-06T21:55:25.412Z,41.10
2023-03-06T21:57:54.700Z,40.00
2023-03-06T22:00:26.095Z,41.30
2023-03-06T22:02:54.227Z,39.20
2023-03-06T22:05:24.214Z,40.50
2023-03-06T22:08:02.129Z,40.40
2023-03-06T22:10:30.111Z,36.80
2023-03-06T22:12:57.974Z,41.20
2023-03-06T22:15:28.506Z,40.60
2023-03-06T22:17:56.669Z,42.40
2023-03-06T22:20:24.698Z,37.70
2023-03-06T22:22:52.925Z,41.30
2023-03-06T22:25:21.102Z,37.50
2023-03-06T22:27:49.063Z,41.50
2023-03-06T22:30:20.208Z,39.20
2023-03-06T22:32:48.411Z,43.00
2023-03-06T22:35:16.863Z,42.80
2023-03-06T22:37:45.113Z,43.60
2023-03-06T22:40:13.193Z,42.70
2023-03-06T22:43:02.525Z,43.10
2023-03-06T22:45:34.828Z,46.10
2023-03-06T22:50:42.458Z,39.50
2023-03-06T22:53:10.602Z,41.90
2023-03-06T22:55:48.736Z,51.50
2023-03-06T22:58:16.812Z,39.50
2023-03-06T23:00:55.671Z,42.00
2023-03-06T23:03:24.072Z,52.10
2023-03-06T23:05:51.971Z,46.00
2023-03-06T23:08:20.267Z,44.60
2023-03-06T23:10:48.122Z,50.60
2023-03-06T23:13:34.308Z,55.40
2023-03-06T23:16:21.016Z,54.30
2023-03-06T23:19:07.823Z,56.90
2023-03-06T23:21:55.131Z,55.90
2023-03-06T23:24:41.453Z,64.30
2023-03-06T23:27:12.190Z,59.30
2023-03-06T23:29:50.003Z,60.20
2023-03-06T23:32:18.424Z,54.80
2023-03-06T23:34:48.807Z,64.70
2023-03-06T23:37:17.083Z,61.60
2023-03-06T23:39:45.130Z,56.90
2023-03-06T23:42:16.077Z,57.20
2023-03-06T23:44:44.048Z,61.60
2023-03-06T23:47:17.125Z,59.40
2023-03-06T23:49:45.182Z,57.90
2023-03-06T23:52:13.272Z,59.70
2023-03-06T23:54:54.054Z,60.30
2023-03-06T23:57:22.013Z,55.10
2023-03-06T23:59:50.192Z,51.90
